Latest Weather Observations for Mount Gambier

IDS60801

Issued at 11:31 pm CDT Sunday 1 February 2015 (issued every 30 minutes, with the page automatically refreshed every 10 minutes)

About weather observations | Map of weather stations | Latest weather observations for SA | Other Formats
Station Details ID: 026021 Name: MOUNT GAMBIER AERO Lat: -37.75 Lon: 140.77 Height: 63.0 m
Data from the previous 72 hours. | See also: Recent months at Mount Gambier
Date/Time
CDT
Temp
°C
App
Temp
°C
Dew
Point
Rel
Hum
%
Delta-T
°C
Wind Press
QNH
hPa
Press
MSL
hPa
Rain
since 9 am
mm
Dir
 
Spd
km/h
Gust
km/h
Spd
kts
Gust
kts
01/11:30pm 12.3 9.3 10.6 89 0.9 S 17 22 9 12 1020.5 - 0.0
01/11:00pm 12.4 8.5 10.9 90 0.8 S 22 33 12 18 1020.6 - 0.0
01/10:30pm 12.4 8.0 10.5 88 1.0 S 24 37 13 20 1020.6 - 0.0
01/10:23pm 12.6 7.5 10.5 87 1.1 S 28 37 15 20 1020.8 - 0.0
01/10:00pm 12.8 9.6 9.9 82 1.5 S 17 19 9 10 1020.5 - 0.0
01/09:30pm 12.6 8.1 10.1 85 1.3 SSE 24 35 13 19 1020.2 - 0.0
01/09:00pm 13.8 8.2 8.6 71 2.6 SSE 28 37 15 20 1019.7 1019.6 0.0
01/08:30pm 13.8 9.4 8.9 72 2.5 S 22 30 12 16 1019.4 - 0.0
01/08:00pm 14.3 7.8 8.3 67 3.0 S 32 41 17 22 1019.3 - 0.0
01/07:30pm 14.7 9.0 8.3 65 3.2 S 28 37 15 20 1019.0 - 0.0
01/07:00pm 15.2 9.1 6.6 56 4.2 S 28 37 15 20 1018.6 - 0.0
01/06:30pm 15.5 8.7 7.0 57 4.2 S 32 41 17 22 1018.4 - 0.0
01/06:00pm 15.9 9.3 7.7 58 4.1 S 32 46 17 25 1018.1 1018.0 0.0
01/05:30pm 16.4 9.6 6.9 53 4.7 S 32 41 17 22 1018.0 - 0.0
01/05:00pm 17.3 10.5 7.8 53 4.8 S 33 43 18 23 1018.0 - 0.0
01/04:30pm 16.9 10.0 6.3 49 5.2 S 32 41 17 22 1017.9 - 0.0
01/04:00pm 17.4 11.7 8.2 54 4.7 SSE 28 39 15 21 1017.7 - 0.0
01/03:30pm 16.6 9.8 7.6 55 4.5 S 33 41 18 22 1017.7 - 0.0
01/03:00pm 17.6 11.1 6.7 48 5.4 S 30 39 16 21 1017.6 1017.5 0.0
01/02:30pm 17.5 10.8 7.4 51 5.1 SSE 32 41 17 22 1017.7 - 0.0
01/02:00pm 18.6 12.0 6.0 43 6.2 S 30 39 16 21 1017.7 - 0.0
01/01:30pm 18.0 11.6 7.0 48 5.5 S 30 41 16 22 1017.8 - 0.0
01/01:00pm 18.0 11.2 7.0 48 5.5 S 32 39 17 21 1017.8 - 0.0
01/12:30pm 17.7 10.6 7.9 52 5.0 SSE 35 39 19 21 1018.1 - 0.0
01/12:00pm 16.8 10.0 7.9 55 4.5 SSE 33 43 18 23 1018.0 1017.9 0.0
01/11:30am 17.1 10.9 9.2 59 4.1 SSE 32 37 17 20 1018.0 - 0.0
01/11:00am 15.5 10.6 11.4 76 2.2 S 28 37 15 20 1018.0 - 0.0
01/10:30am 16.4 11.8 11.0 70 2.9 SSE 26 35 14 19 1017.7 - 0.0
01/10:00am 14.2 9.4 11.6 84 1.4 S 28 41 15 22 1017.7 - 0.0
01/09:30am 14.7 9.4 9.9 73 2.5 S 28 33 15 18 1017.5 - 0.0
01/09:00am 14.0 9.1 11.2 83 1.5 S 28 39 15 21 1017.4 1017.3 0.6
01/08:30am 13.7 9.9 11.3 85 1.3 SSW 22 30 12 16 1017.1 - 0.6
01/08:00am 13.6 10.2 11.1 85 1.3 SSW 20 26 11 14 1016.9 - 0.6
01/07:55am 12.8 9.7 11.5 92 0.7 SSW 19 26 10 14 1016.8 - 0.6
01/07:51am 12.7 9.4 11.6 93 0.6 SSW 20 30 11 16 1016.7 - 0.6
01/07:34am 12.4 9.6 11.3 93 0.6 SSE 17 26 9 14 1016.6 - 0.6
01/07:30am 12.3 9.0 11.0 92 0.7 SSE 19 26 10 14 1016.5 - 0.6
01/07:00am 11.9 7.9 10.5 91 0.7 SSW 22 30 12 16 1016.3 - 0.6
01/06:30am 11.8 7.9 10.8 94 0.5 S 22 30 12 16 1016.1 - 0.6
01/06:12am 12.0 6.6 11.0 94 0.5 SSE 30 35 16 19 1016.1 - 0.6
01/06:00am 11.8 7.5 10.8 94 0.5 S 24 32 13 17 1015.9 1015.8 0.6
01/05:30am 12.0 8.0 10.5 90 0.8 S 22 28 12 15 1015.6 - 0.4
01/05:17am 11.7 7.4 10.9 95 0.4 S 24 30 13 16 1015.5 - 0.4
01/05:02am 12.1 8.4 11.5 96 0.3 S 22 28 12 15 1015.6 - 0.4
01/05:00am 12.1 8.8 11.5 96 0.3 S 20 28 11 15 1015.6 - 0.2
01/04:50am 12.0 8.8 11.4 96 0.3 S 19 26 10 14 1015.6 - 0.0
01/04:36am 12.1 9.0 11.5 96 0.3 S 19 30 10 16 1015.6 - 0.0
01/04:30am 12.0 10.0 11.4 96 0.3 S 13 26 7 14 1015.6 - 0.0
01/04:29am 12.0 10.0 11.4 96 0.3 S 13 15 7 8 1015.6 - 0.0
01/04:14am 11.9 9.8 11.3 96 0.3 S 13 19 7 10 1015.6 - 0.0
01/04:00am 12.0 8.3 11.4 96 0.3 S 22 30 12 16 1015.6 - 0.0
01/03:50am 12.1 8.3 11.1 94 0.5 S 22 37 12 20 1015.7 - 0.0
01/03:37am 11.8 8.5 11.0 95 0.4 SSW 19 24 10 13 1015.7 - 0.0
01/03:30am 12.0 8.2 11.2 95 0.4 SSW 22 30 12 16 1015.8 - 0.0
01/03:21am 12.3 7.8 11.4 94 0.5 SSW 26 32 14 17 1015.9 - 0.0
01/03:00am 12.7 9.8 9.8 82 1.5 SSW 15 20 8 11 1016.0 1015.9 0.0
01/02:30am 13.6 8.3 9.7 77 2.0 S 28 35 15 19 1016.1 - 0.0
01/02:00am 14.2 9.4 8.9 70 2.7 S 24 30 13 16 1016.2 - 0.0
01/01:30am 14.5 9.7 7.4 62 3.5 S 22 32 12 17 1016.5 - 0.0
01/01:00am 14.5 9.9 6.7 59 3.8 S 20 30 11 16 1016.8 - 0.0
01/12:30am 14.4 9.2 7.3 62 3.5 S 24 30 13 16 1016.8 - 0.0
01/12:00am 14.4 9.1 6.6 59 3.8 S 24 32 13 17 1016.7 1016.6 0.0
 
Date/Time
CDT
Temp
°C
App
Temp
°C
Dew
Point
Rel
Hum
%
Delta-T
°C
Wind Press
QNH
hPa
Press
MSL
hPa
Rain
since 9 am
mm
Dir
 
Spd
km/h
Gust
km/h
Spd
kts
Gust
kts
31/11:30pm 14.6 10.0 8.2 65 3.2 S 22 30 12 16 1016.7 - 0.0
31/11:00pm 14.5 9.9 6.7 59 3.8 S 20 28 11 15 1016.9 - 0.0
31/10:30pm 14.6 8.7 7.5 62 3.5 S 28 35 15 19 1017.1 - 0.0
31/10:00pm 14.7 9.9 9.0 68 2.9 S 24 33 13 18 1017.0 - 0.0
31/09:30pm 14.8 10.4 7.5 61 3.6 S 20 28 11 15 1016.8 - 0.0
31/09:00pm 14.8 9.2 7.3 61 3.7 S 26 33 14 18 1016.8 1016.7 0.0
31/08:30pm 14.8 8.6 8.0 64 3.4 S 30 35 16 19 1016.7 - 0.0
31/08:00pm 15.3 9.1 7.9 61 3.7 S 30 35 16 19 1016.5 - 0.0
31/07:30pm 16.1 9.6 6.3 52 4.8 S 30 39 16 21 1016.3 - 0.0
31/07:00pm 16.1 9.1 6.0 51 4.9 S 32 43 17 23 1016.0 - 0.0
31/06:30pm 17.1 9.4 5.3 45 5.7 S 35 50 19 27 1015.7 - 0.0
31/06:00pm 16.8 9.6 5.9 48 5.3 S 33 52 18 28 1015.7 1015.6 0.0
31/05:30pm 17.1 9.2 6.1 48 5.4 S 37 50 20 27 1015.6 - 0.0
31/05:00pm 17.6 9.7 6.2 47 5.6 S 37 44 20 24 1015.7 - 0.0
31/04:30pm 18.3 9.9 5.6 43 6.2 S 39 54 21 29 1015.9 - 0.0
31/04:00pm 17.7 10.4 7.4 51 5.2 S 35 46 19 25 1015.8 - 0.0
31/03:30pm 19.3 11.8 6.3 42 6.5 S 35 43 19 23 1016.0 - 0.0
31/03:00pm 18.4 10.9 7.8 50 5.4 S 37 48 20 26 1016.1 1016.0 0.0
31/02:30pm 18.5 11.3 7.5 48 5.6 S 35 50 19 27 1016.0 - 0.0
31/02:00pm 18.8 11.5 7.4 47 5.8 S 35 50 19 27 1016.0 - 0.0
31/01:51pm 18.7 11.0 7.2 47 5.8 S 37 46 20 25 1016.0 - 0.0
31/01:48pm 19.0 11.4 7.4 47 5.9 SSW 37 46 20 25 1016.1 - 0.0
31/01:41pm 18.2 11.9 7.6 50 5.4 S 30 48 16 26 1016.1 - 0.0
31/01:30pm 19.2 12.4 6.9 44 6.2 S 32 43 17 23 1016.1 - 0.0
31/01:00pm 18.1 11.3 7.9 51 5.2 S 33 43 18 23 1016.4 - 0.0
31/12:30pm 17.7 10.8 8.8 56 4.6 S 35 44 19 24 1016.5 - 0.0
31/12:00pm 17.2 12.6 9.6 61 4.0 SSE 24 33 13 18 1016.7 1016.6 0.0
31/11:30am 16.8 13.0 11.0 68 3.1 SSE 22 32 12 17 1016.8 - 0.0
31/11:00am 16.8 11.8 9.5 62 3.8 SSE 26 37 14 20 1016.9 - 0.0
31/10:30am 17.0 11.0 8.6 57 4.3 SSE 30 39 16 21 1016.8 - 0.0
31/10:00am 16.7 10.3 8.5 58 4.2 S 32 37 17 20 1016.9 - 0.0
31/09:30am 16.9 9.9 8.5 57 4.3 SSE 35 43 19 23 1016.4 - 0.0
31/09:00am 16.1 10.1 10.2 68 3.1 SSE 32 37 17 20 1016.3 1016.2 0.0
31/08:30am 15.9 11.3 9.8 67 3.2 SSE 24 33 13 18 1015.8 - 0.0
31/08:00am 15.2 9.1 9.8 70 2.8 SSE 32 41 17 22 1015.6 - 0.0
31/07:30am 15.2 10.8 8.9 66 3.2 SSE 22 30 12 16 1015.0 - 0.0
31/07:00am 14.9 8.8 8.1 64 3.4 SSE 30 39 16 21 1014.8 - 0.0
31/06:30am 14.4 10.9 10.8 79 1.9 SSE 20 33 11 18 1014.9 - 0.0
31/06:00am 14.1 10.6 10.9 81 1.7 SSE 20 28 11 15 1014.7 1014.6 0.0
31/05:30am 14.0 10.6 11.2 83 1.5 S 20 26 11 14 1014.7 - 0.0
31/05:00am 14.2 10.3 10.8 80 1.8 S 22 32 12 17 1014.9 - 0.0
31/04:30am 14.4 8.9 10.4 77 2.1 SSE 30 41 16 22 1015.1 - 0.0
31/04:00am 14.8 10.8 10.6 76 2.2 S 22 32 12 17 1015.0 - 0.0
31/03:30am 14.6 11.0 10.6 77 2.1 S 20 30 11 16 1015.1 - 0.0
31/03:00am 14.2 10.8 10.4 78 2.0 S 19 30 10 16 1015.2 1015.1 0.0
31/02:30am 14.6 10.0 9.8 73 2.5 S 24 32 13 17 1015.1 - 0.0
31/02:00am 14.4 10.2 11.2 81 1.7 SSE 24 37 13 20 1015.2 - 0.0
31/01:30am 14.7 11.0 10.1 74 2.4 SSE 20 30 11 16 1015.5 - 0.0
31/01:00am 14.6 10.5 10.0 74 2.4 SSE 22 30 12 16 1015.8 - 0.0
31/12:30am 13.5 10.8 10.4 81 1.6 SSE 15 19 8 10 1016.0 - 0.0
31/12:00am 13.2 10.3 9.7 79 1.8 S 15 19 8 10 1016.1 1016.0 0.0
 
Date/Time
CDT
Temp
°C
App
Temp
°C
Dew
Point
Rel
Hum
%
Delta-T
°C
Wind Press
QNH
hPa
Press
MSL
hPa
Rain
since 9 am
mm
Dir
 
Spd
km/h
Gust
km/h
Spd
kts
Gust
kts
30/11:30pm 13.4 10.2 9.9 79 1.8 SSE 17 20 9 11 1016.1 - 0.0
30/11:00pm 13.9 9.9 10.5 80 1.8 SSE 22 32 12 17 1016.2 - 0.0
30/10:30pm 14.9 10.2 10.5 75 2.3 SSE 26 35 14 19 1016.5 - 0.0
30/10:00pm 14.7 11.3 10.5 76 2.2 SSE 19 24 10 13 1016.7 - 0.0
30/09:30pm 14.1 11.0 10.3 78 2.0 SSE 17 26 9 14 1016.5 - 0.0
30/09:00pm 14.2 10.4 9.7 74 2.3 SSE 20 32 11 17 1016.5 1016.4 0.0
30/08:30pm 14.7 10.1 9.7 72 2.6 SSE 24 32 13 17 1016.2 - 0.0
30/08:00pm 15.2 9.6 8.7 65 3.3 S 28 37 15 20 1016.2 - 0.0
30/07:30pm 16.4 9.6 7.6 56 4.4 S 33 41 18 22 1016.2 - 0.0
30/07:00pm 16.9 10.2 8.3 57 4.4 S 33 46 18 25 1015.8 - 0.0
30/06:30pm 17.8 9.7 7.0 49 5.4 S 39 48 21 26 1015.4 - 0.0
30/06:00pm 19.0 12.1 7.1 46 6.0 SSE 33 44 18 24 1015.6 1015.5 0.0
30/05:30pm 18.9 11.9 6.7 45 6.1 S 33 43 18 23 1015.7 - 0.0
30/05:00pm 19.7 12.9 7.1 44 6.4 S 32 41 17 22 1015.8 - 0.0
30/04:30pm 19.3 12.5 7.1 45 6.2 S 32 39 17 21 1016.0 - 0.0
30/04:00pm 20.6 14.0 8.4 45 6.4 S 33 46 18 25 1016.0 - 0.0
30/03:30pm 21.1 14.7 8.6 44 6.6 S 32 48 17 26 1016.1 - 0.0
30/03:00pm 21.4 14.9 8.0 42 7.0 S 32 41 17 22 1016.2 1016.1 0.0
30/02:30pm 21.7 15.9 7.9 41 7.2 S 28 37 15 20 1016.5 - 0.0
30/02:00pm 21.4 15.6 8.0 42 7.0 S 28 37 15 20 1016.8 - 0.0
30/01:30pm 20.6 14.9 6.8 40 7.0 S 26 37 14 20 1017.1 - 0.0
30/01:00pm 20.4 14.9 7.6 43 6.6 S 26 37 14 20 1017.5 - 0.0
30/12:30pm 20.9 16.3 8.0 43 6.7 S 22 33 12 18 1017.6 - 0.0
30/12:00pm 19.2 14.5 7.7 47 5.9 SSW 22 33 12 18 1018.1 1018.0 0.0
30/11:30am 20.4 17.9 8.3 45 6.3 SSE 11 24 6 13 1018.4 - 0.0
30/11:00am 18.4 15.5 8.1 51 5.3 S 13 20 7 11 1018.6 - 0.0
30/10:30am 19.1 14.7 9.0 52 5.3 S 22 33 12 18 1018.7 - 0.0
30/10:00am 17.8 13.9 8.5 54 4.8 SSW 19 28 10 15 1019.1 - 0.0
30/09:30am 17.3 13.2 7.8 53 4.8 ESE 19 26 10 14 1019.1 - 0.0
30/09:00am 16.3 13.0 9.4 63 3.6 SSE 17 24 9 13 1019.2 1019.1 0.0
30/08:30am 15.2 12.7 9.8 70 2.8 SE 13 20 7 11 1019.3 - 0.0
30/08:00am 13.3 12.3 11.0 86 1.2 SE 7 11 4 6 1018.9 - 0.0
30/07:30am 11.6 11.7 10.0 90 0.8 CALM 0 0 0 0 1018.9 - 0.0
30/07:00am 8.7 6.9 8.1 96 0.3 S 7 7 4 4 1018.7 - 0.0
30/06:30am 7.9 7.3 7.5 97 0.2 CALM 0 0 0 0 1018.4 - 0.0
30/06:00am 8.6 6.8 7.8 95 0.4 S 7 9 4 5 1018.2 1018.1 0.0
30/05:30am 8.7 6.1 7.9 95 0.4 S 11 11 6 6 1018.0 - 0.0
30/05:00am 9.1 7.0 8.1 93 0.5 S 9 11 5 6 1018.0 - 0.0
30/04:30am 9.0 6.8 8.0 93 0.5 S 9 9 5 5 1018.0 - 0.0
30/04:00am 9.5 7.4 8.3 92 0.6 S 9 11 5 6 1018.1 - 0.0
30/03:30am 9.4 6.5 8.2 92 0.6 SSE 13 15 7 8 1018.2 - 0.0
30/03:00am 9.7 6.8 8.3 91 0.7 SSE 13 15 7 8 1018.3 1018.2 0.0
30/02:30am 10.2 7.8 8.6 90 0.8 SSE 11 13 6 7 1018.5 - 0.0
30/02:00am 11.1 8.3 8.7 85 1.2 SE 13 17 7 9 1018.7 - 0.0
30/01:30am 11.7 8.7 9.1 84 1.3 SSE 15 19 8 10 1018.8 - 0.0
30/01:00am 12.0 8.2 9.2 83 1.4 SSE 19 26 10 14 1018.9 - 0.0
30/12:30am 12.3 8.8 8.9 80 1.7 SSE 17 19 9 10 1019.3 - 0.0
30/12:00am 12.5 8.7 8.9 79 1.8 SSE 19 24 10 13 1019.3 1019.2 0.0

Other Formats:

Comma delimited format used in spreadsheet applications
http://www.bom.gov.au/fwo/IDS60801/IDS60801.94821.axf

JavaScript Object Notation format (JSON) in row-major order
http://www.bom.gov.au/fwo/IDS60801/IDS60801.94821.json